logo
Rechercher aéroport 
image banner adimage banner adimage banner ad
image banner ad

SION - Tibagi

Situé à Guaramiranga, Brazil

ICAO - SION, IATA -

Données fournies par Airmate  

Information générale

Coordonnées: S4°15'5" W38°57'6"
Élévation : 2808 feet MSL.
Variation magnétique : -20.948550176° East
Voir autres Aéroports à Ceará

Données opérationnelles

Special qualification required
Heure actuelle UTC:
Heure actuelle locale:
Météo à : SBFZ - Pinto Martins ( 70 km )
METAR: SBFZ 172000Z 11013KT 9999 FEW025 28/23 Q1011
TAF: TAF SBFZ 172001Z 1800/1824 16005KT 9999 SCT025 TN24/1809Z TX30/1817Z TEMPO 1801/1807 22006KT 4000 RA BKN010 BECMG 1810/1812 14015KT BECMG 1821/1823 17005KT RMK PHI
Voir NOTAMs / SUP AIP / TFR affectant cet aéroport [VIEW]
Fréquences de communication: [VIEW]

Pistes:

Coordonnées de l'aéroport

Adresse: Guaramiranga Brazil

Vue satellite de SION